Time;durP1;ratioP1;P1;durP2;ratioP2;P2;SDS_P1;SDS_P2;PMS_P1;PMS_P2;Temp;Humidity;BMP_temperature;BMP_pressure;BME280_temperature;BME280_humidity;BME280_pressure;Samples;Min_cycle;Max_cycle;Signal;HPM_P1;HPM_P2
2022/02/16 00:01:45;;;;;;;3.45;2.50;;;5.50;99.90;;;;;;466408;255;27616;-76
2022/02/16 00:03:47;;;;;;;2.45;2.25;;;5.50;99.90;;;;;;466459;255;28065;-79
2022/02/16 00:05:48;;;;;;;9.48;2.67;;;5.50;99.90;;;;;;473942;246;27996;-75
2022/02/16 00:07:49;;;;;;;2.55;2.33;;;5.40;99.90;;;;;;480928;247;27464;-76
2022/02/16 00:09:50;;;;;;;4.45;2.70;;;5.40;99.90;;;;;;480977;247;27887;-76
2022/02/16 00:11:52;;;;;;;2.62;2.10;;;5.40;99.90;;;;;;481169;247;27919;-76
2022/02/16 00:13:53;;;;;;;3.03;2.20;;;5.50;99.90;;;;;;481150;247;27443;-75
2022/02/16 00:15:54;;;;;;;2.30;2.08;;;5.50;99.90;;;;;;481104;246;27421;-76
2022/02/16 00:17:56;;;;;;;6.53;2.90;;;5.50;99.90;;;;;;481150;247;27533;-74
2022/02/16 00:19:57;;;;;;;5.60;2.58;;;5.40;99.90;;;;;;481087;246;27443;-73
2022/02/16 00:21:58;;;;;;;3.45;2.60;;;5.40;99.90;;;;;;481097;247;27437;-74
2022/02/16 00:23:59;;;;;;;5.90;3.05;;;5.40;99.90;;;;;;481154;246;27455;-76
2022/02/16 00:26:02;;;;;;;3.47;2.53;;;5.40;99.90;;;;;;483195;245;27858;-75
2022/02/16 00:28:02;;;;;;;3.97;2.37;;;5.40;99.90;;;;;;484749;245;27998;-75
2022/02/16 00:30:03;;;;;;;3.37;2.20;;;5.40;99.90;;;;;;484844;245;27448;-76
2022/02/16 00:32:04;;;;;;;4.25;2.12;;;5.40;99.90;;;;;;484826;245;27450;-73
2022/02/16 00:34:06;;;;;;;3.85;2.75;;;5.40;99.90;;;;;;467719;254;27664;-76
2022/02/16 00:36:07;;;;;;;3.45;2.70;;;5.40;99.90;;;;;;484891;245;27526;-75
2022/02/16 00:38:08;;;;;;;4.82;2.25;;;5.50;99.90;;;;;;484806;245;27475;-76
2022/02/16 00:40:09;;;;;;;3.65;2.15;;;5.50;99.90;;;;;;467741;254;28136;-76
2022/02/16 00:42:11;;;;;;;2.70;2.08;;;5.50;99.90;;;;;;484862;245;27879;-73
2022/02/16 00:44:12;;;;;;;3.60;2.30;;;5.50;99.90;;;;;;484804;245;27443;-73
2022/02/16 00:46:14;;;;;;;2.12;2.03;;;5.40;99.90;;;;;;467723;254;27527;-72
2022/02/16 00:48:14;;;;;;;5.78;2.87;;;5.40;99.90;;;;;;484827;245;27440;-75
2022/02/16 00:50:16;;;;;;;2.50;2.10;;;5.40;99.90;;;;;;484878;245;27439;-76
2022/02/16 00:52:21;;;;;;;7.50;2.40;;;5.40;99.90;;;;;;467744;254;27581;-75
2022/02/16 00:54:18;;;;;;;4.78;2.00;;;5.50;99.90;;;;;;484499;245;27451;-73
2022/02/16 00:56:20;;;;;;;2.53;2.33;;;5.40;99.90;;;;;;467726;254;28879;-74
2022/02/16 00:58:21;;;;;;;4.12;2.35;;;5.50;99.90;;;;;;484852;245;27888;-72
2022/02/16 01:00:22;;;;;;;3.90;2.37;;;5.50;99.90;;;;;;484840;245;27436;-75
2022/02/16 01:02:23;;;;;;;2.90;2.15;;;5.40;99.90;;;;;;467732;254;27635;-73
2022/02/16 01:04:25;;;;;;;6.12;2.92;;;5.40;99.90;;;;;;484839;245;27431;-73
2022/02/16 01:06:26;;;;;;;6.05;2.95;;;5.40;99.90;;;;;;484842;245;27514;-74
2022/02/16 01:08:29;;;;;;;3.97;2.50;;;5.40;99.90;;;;;;467746;254;27678;-76
2022/02/16 01:10:28;;;;;;;3.17;2.47;;;5.40;99.90;;;;;;484718;245;27509;-73
2022/02/16 01:12:30;;;;;;;7.32;2.47;;;5.40;99.90;;;;;;484894;245;27950;-75
2022/02/16 01:14:31;;;;;;;3.78;2.45;;;5.40;99.90;;;;;;467697;254;28053;-75
2022/02/16 01:16:33;;;;;;;2.28;2.17;;;4.30;99.90;;;;;;484851;245;27434;-74
2022/02/16 01:18:33;;;;;;;2.65;2.20;;;5.50;99.90;;;;;;484823;245;27459;-75
2022/02/16 01:20:35;;;;;;;2.35;2.17;;;5.50;99.90;;;;;;484888;245;27541;-76
2022/02/16 01:22:36;;;;;;;2.75;2.20;;;5.50;99.90;;;;;;484816;245;27485;-75
2022/02/16 01:24:37;;;;;;;2.55;2.20;;;5.50;99.90;;;;;;467736;254;27603;-74
2022/02/16 01:26:38;;;;;;;3.92;2.47;;;5.50;99.90;;;;;;484882;245;27884;-74
2022/02/16 01:28:40;;;;;;;2.40;2.20;;;5.50;99.90;;;;;;484771;245;27854;-73
2022/02/16 01:30:41;;;;;;;3.72;2.60;;;5.50;99.90;;;;;;467727;254;28140;-76
2022/02/16 01:32:42;;;;;;;3.10;2.05;;;5.50;99.90;;;;;;484830;245;27451;-75
2022/02/16 01:34:43;;;;;;;5.80;2.58;;;5.50;99.90;;;;;;484843;245;27533;-74
2022/02/16 01:36:45;;;;;;;3.53;2.15;;;5.50;99.90;;;;;;467762;254;27690;-77
2022/02/16 01:38:46;;;;;;;5.40;2.17;;;5.50;99.90;;;;;;484807;245;27418;-75
2022/02/16 01:40:47;;;;;;;2.30;2.20;;;5.60;99.90;;;;;;484858;245;27550;-73
2022/02/16 01:42:48;;;;;;;2.05;1.95;;;5.50;99.90;;;;;;467729;254;28006;-73
2022/02/16 01:44:50;;;;;;;2.55;1.98;;;5.60;99.90;;;;;;484796;245;28037;-75
2022/02/16 01:46:51;;;;;;;2.47;2.28;;;5.50;99.90;;;;;;484862;245;27443;-76
2022/02/16 01:48:52;;;;;;;2.10;2.00;;;5.50;99.90;;;;;;467653;254;27541;-73
2022/02/16 01:50:53;;;;;;;2.60;2.40;;;5.60;99.90;;;;;;484888;245;27443;-74
2022/02/16 01:52:55;;;;;;;4.78;2.03;;;5.60;99.90;;;;;;484886;245;27415;-75
2022/02/16 01:54:56;;;;;;;2.20;2.00;;;5.60;99.90;;;;;;467733;254;27590;-75
2022/02/16 01:56:57;;;;;;;3.03;1.92;;;5.60;99.90;;;;;;484933;245;27443;-76
2022/02/16 01:58:58;;;;;;;3.60;2.03;;;5.60;99.90;;;;;;484838;245;27875;-73
2022/02/16 02:01:01;;;;;;;2.60;1.98;;;5.60;99.90;;;;;;467679;254;28068;-75
2022/02/16 02:03:01;;;;;;;2.10;2.00;;;5.50;99.90;;;;;;484838;245;27511;-73
2022/02/16 02:05:02;;;;;;;2.08;1.90;;;5.60;99.90;;;;;;467726;254;27668;-75
2022/02/16 02:07:03;;;;;;;2.30;1.83;;;5.60;99.90;;;;;;484868;245;27450;-77
2022/02/16 02:09:05;;;;;;;1.85;1.75;;;5.60;99.90;;;;;;467737;254;27643;-77
2022/02/16 02:11:06;;;;;;;2.30;1.85;;;5.60;99.90;;;;;;484769;245;27453;-74
2022/02/16 02:13:08;;;;;;;2.95;2.20;;;5.50;99.90;;;;;;484768;245;28495;-73
2022/02/16 02:15:09;;;;;;;4.43;2.20;;;5.50;99.90;;;;;;467692;254;28003;-73
2022/02/16 02:17:10;;;;;;;2.10;2.00;;;5.60;99.90;;;;;;484808;245;27533;-73
2022/02/16 02:19:11;;;;;;;1.80;1.70;;;5.60;99.90;;;;;;484852;245;27411;-73
2022/02/16 02:21:12;;;;;;;2.22;2.03;;;5.50;99.90;;;;;;467675;254;27624;-74
2022/02/16 02:23:14;;;;;;;2.05;1.85;;;5.60;99.90;;;;;;484824;245;27472;-73
2022/02/16 02:25:15;;;;;;;2.60;1.75;;;5.60;99.90;;;;;;484889;245;27407;-73
2022/02/16 02:27:16;;;;;;;2.10;1.90;;;5.60;99.90;;;;;;467668;254;28111;-74
2022/02/16 02:29:17;;;;;;;4.30;1.83;;;5.60;99.90;;;;;;484878;245;27931;-75
2022/02/16 02:31:19;;;;;;;2.15;1.95;;;5.50;99.90;;;;;;484880;245;27447;-74
2022/02/16 02:33:20;;;;;;;2.50;1.80;;;5.60;99.90;;;;;;467716;254;27663;-73
2022/02/16 02:35:21;;;;;;;2.50;2.10;;;5.50;99.90;;;;;;484879;245;27392;-73
2022/02/16 02:37:22;;;;;;;1.90;1.80;;;5.50;99.90;;;;;;467740;254;27592;-73
2022/02/16 02:39:24;;;;;;;1.98;1.87;;;5.50;99.90;;;;;;484882;245;27415;-75
2022/02/16 02:41:25;;;;;;;2.00;1.80;;;5.50;99.90;;;;;;467736;254;27576;-73
2022/02/16 02:43:26;;;;;;;3.83;1.80;;;5.50;99.90;;;;;;484861;245;28012;-75
2022/02/16 02:45:27;;;;;;;2.33;2.10;;;5.50;99.90;;;;;;484927;245;27940;-73
2022/02/16 02:47:29;;;;;;;2.00;1.90;;;5.50;99.90;;;;;;467666;254;27672;-73
2022/02/16 02:49:30;;;;;;;1.85;1.75;;;5.60;99.90;;;;;;484827;245;27483;-73
2022/02/16 02:51:31;;;;;;;1.80;1.70;;;5.50;99.90;;;;;;484893;245;27430;-74
2022/02/16 02:53:34;;;;;;;1.67;1.58;;;5.60;99.90;;;;;;484889;245;27790;-76
2022/02/16 02:55:34;;;;;;;2.53;2.33;;;5.60;99.90;;;;;;467643;254;27640;-73
2022/02/16 02:57:35;;;;;;;3.08;1.73;;;5.60;99.90;;;;;;484884;245;27510;-74
2022/02/16 02:59:36;;;;;;;3.50;2.05;;;5.60;99.90;;;;;;484811;245;27880;-75
2022/02/16 03:01:37;;;;;;;1.75;1.65;;;5.60;99.90;;;;;;467714;254;28203;-74
2022/02/16 03:03:39;;;;;;;2.67;1.60;;;5.60;99.90;;;;;;484896;245;27519;-76
2022/02/16 03:05:40;;;;;;;1.90;1.70;;;5.60;99.90;;;;;;484834;245;27411;-75
2022/02/16 03:07:41;;;;;;;1.80;1.70;;;5.50;99.90;;;;;;467742;254;27661;-75
2022/02/16 03:09:42;;;;;;;1.65;1.55;;;5.50;99.90;;;;;;484867;245;27398;-75
2022/02/16 03:11:44;;;;;;;1.75;1.65;;;5.50;99.90;;;;;;484847;245;27447;-75
2022/02/16 03:13:45;;;;;;;2.00;1.90;;;5.50;99.90;;;;;;467772;254;27576;-76
2022/02/16 03:15:46;;;;;;;1.92;1.83;;;5.60;99.90;;;;;;484869;245;27878;-75
2022/02/16 03:17:47;;;;;;;2.33;1.90;;;5.50;99.90;;;;;;484890;245;28035;-75
2022/02/16 03:19:49;;;;;;;1.80;1.70;;;5.60;99.90;;;;;;467747;254;27652;-75
2022/02/16 03:21:50;;;;;;;4.90;2.20;;;5.50;99.90;;;;;;484884;245;27499;-75
2022/02/16 03:23:52;;;;;;;1.87;1.70;;;5.50;99.90;;;;;;484818;245;27469;-76
2022/02/16 03:25:53;;;;;;;1.62;1.52;;;5.60;99.90;;;;;;467694;254;27623;-75
2022/02/16 03:27:54;;;;;;;2.35;1.80;;;5.60;99.90;;;;;;484893;245;27423;-76
2022/02/16 03:29:55;;;;;;;2.08;1.83;;;5.50;99.90;;;;;;484891;245;27523;-75
2022/02/16 03:31:56;;;;;;;1.58;1.58;;;5.60;99.90;;;;;;467748;254;27987;-73
2022/02/16 03:33:58;;;;;;;2.08;1.45;;;5.60;99.90;;;;;;484917;245;28019;-76
2022/02/16 03:35:59;;;;;;;3.72;1.90;;;5.60;99.90;;;;;;484887;245;27509;-73
2022/02/16 03:38:00;;;;;;;2.17;1.98;;;5.60;99.90;;;;;;467742;254;27590;-74
2022/02/16 03:40:01;;;;;;;1.87;1.75;;;5.60;99.90;;;;;;484915;245;27889;-77
2022/02/16 03:42:03;;;;;;;1.60;1.50;;;5.60;99.90;;;;;;484894;245;27411;-75
2022/02/16 03:44:04;;;;;;;1.90;1.80;;;5.60;99.90;;;;;;467774;254;27624;-75
2022/02/16 03:46:05;;;;;;;1.92;1.83;;;5.60;99.90;;;;;;484918;245;27846;-75
2022/02/16 03:48:06;;;;;;;1.70;1.60;;;5.60;99.90;;;;;;484845;245;27929;-75
2022/02/16 03:50:08;;;;;;;1.92;1.83;;;5.60;99.90;;;;;;467791;254;27709;-78
2022/02/16 03:52:09;;;;;;;1.70;1.50;;;5.60;99.90;;;;;;484894;245;27482;-76
2022/02/16 03:54:10;;;;;;;1.83;1.73;;;5.60;99.90;;;;;;484930;245;27538;-75
2022/02/16 03:56:11;;;;;;;1.75;1.65;;;5.60;99.90;;;;;;467732;254;27531;-75
2022/02/16 03:58:13;;;;;;;1.80;1.58;;;5.60;99.90;;;;;;484862;245;27428;-75
2022/02/16 04:00:15;;;;;;;1.70;1.60;;;5.60;99.90;;;;;;484871;245;27438;-76
2022/02/16 04:02:15;;;;;;;2.08;1.98;;;5.60;99.90;;;;;;467671;254;28042;-75
2022/02/16 04:04:16;;;;;;;1.98;1.87;;;5.60;99.90;;;;;;484910;245;27920;-76
2022/02/16 04:06:18;;;;;;;1.98;1.87;;;5.60;99.90;;;;;;484914;245;27534;-75
2022/02/16 04:08:19;;;;;;;2.95;1.90;;;5.60;99.90;;;;;;467748;254;27540;-75
2022/02/16 04:10:20;;;;;;;2.47;1.55;;;5.60;99.90;;;;;;484895;245;27446;-76
2022/02/16 04:12:22;;;;;;;3.10;2.17;;;5.60;99.90;;;;;;484852;245;28754;-73
2022/02/16 04:14:23;;;;;;;1.90;1.70;;;5.60;99.90;;;;;;467744;254;28011;-75
2022/02/16 04:16:24;;;;;;;1.92;1.80;;;5.70;99.90;;;;;;484822;245;27439;-76
2022/02/16 04:18:26;;;;;;;2.83;1.60;;;5.70;99.90;;;;;;467749;254;27627;-73
2022/02/16 04:20:27;;;;;;;1.75;1.65;;;5.70;99.90;;;;;;484921;245;27529;-73
2022/02/16 04:22:28;;;;;;;2.00;1.83;;;5.70;99.90;;;;;;484909;245;27455;-73
2022/02/16 04:24:29;;;;;;;1.73;1.62;;;5.70;99.90;;;;;;484884;245;27419;-73
2022/02/16 04:26:30;;;;;;;1.90;1.80;;;5.70;99.90;;;;;;467740;254;28148;-76
2022/02/16 04:28:32;;;;;;;1.80;1.70;;;5.70;99.90;;;;;;484878;245;27944;-75
2022/02/16 04:30:33;;;;;;;2.58;1.92;;;5.70;99.90;;;;;;484888;245;27448;-74
2022/02/16 04:32:34;;;;;;;1.52;1.42;;;5.70;99.90;;;;;;467742;254;27566;-72
2022/02/16 04:34:35;;;;;;;2.40;1.85;;;5.70;99.90;;;;;;484913;245;27495;-74
2022/02/16 04:36:37;;;;;;;2.20;1.70;;;5.70;99.90;;;;;;484925;245;27432;-75
2022/02/16 04:38:38;;;;;;;1.45;1.35;;;5.70;99.90;;;;;;467686;254;27661;-74
2022/02/16 04:40:39;;;;;;;1.77;1.67;;;5.70;99.90;;;;;;484893;245;27928;-74
2022/02/16 04:42:41;;;;;;;1.73;1.62;;;5.70;99.90;;;;;;484866;245;28545;-73
2022/02/16 04:44:42;;;;;;;1.62;1.55;;;5.70;99.90;;;;;;484883;245;27411;-74
2022/02/16 04:46:44;;;;;;;1.98;1.77;;;5.70;99.90;;;;;;484905;245;27435;-74
2022/02/16 04:48:44;;;;;;;3.80;2.22;;;5.70;99.90;;;;;;484888;245;27406;-73
2022/02/16 04:50:46;;;;;;;2.00;1.90;;;5.70;99.90;;;;;;467702;254;27592;-75
2022/02/16 04:52:49;;;;;;;1.77;1.67;;;5.70;99.90;;;;;;484879;245;27408;-75
2022/02/16 04:54:48;;;;;;;1.83;1.73;;;5.70;99.90;;;;;;484764;245;27459;-75
2022/02/16 04:56:49;;;;;;;3.62;2.20;;;5.70;99.90;;;;;;467738;254;28046;-76
2022/02/16 04:58:51;;;;;;;1.85;1.75;;;5.70;99.90;;;;;;484880;245;27885;-75
2022/02/16 05:00:52;;;;;;;1.62;1.52;;;5.70;99.90;;;;;;484877;245;27505;-75
2022/02/16 05:02:53;;;;;;;1.80;1.70;;;5.70;99.90;;;;;;467754;254;27567;-74
2022/02/16 05:04:54;;;;;;;1.80;1.70;;;5.70;99.90;;;;;;484832;245;27492;-76
2022/02/16 05:06:56;;;;;;;2.12;2.03;;;5.70;99.90;;;;;;484873;245;27447;-76
2022/02/16 05:09:00;;;;;;;1.90;1.77;;;5.80;99.90;;;;;;467717;254;27531;-75
2022/02/16 05:10:58;;;;;;;1.77;1.67;;;5.80;99.90;;;;;;484460;245;27914;-75
2022/02/16 05:12:59;;;;;;;1.83;1.70;;;5.80;99.90;;;;;;467735;254;28774;-75
2022/02/16 05:15:01;;;;;;;2.28;1.85;;;5.80;99.90;;;;;;484902;245;27407;-76
2022/02/16 05:17:02;;;;;;;1.65;1.55;;;5.80;99.90;;;;;;484867;245;27533;-73
2022/02/16 05:19:03;;;;;;;2.00;1.85;;;5.80;99.90;;;;;;467739;254;27591;-75
2022/02/16 05:21:04;;;;;;;1.60;1.60;;;5.80;99.90;;;;;;484869;245;27442;-75
2022/02/16 05:23:06;;;;;;;1.75;1.65;;;5.80;99.90;;;;;;484854;245;27517;-74
2022/02/16 05:25:08;;;;;;;1.92;1.83;;;5.80;99.90;;;;;;467765;254;27584;-75
2022/02/16 05:27:09;;;;;;;1.98;1.80;;;5.80;99.90;;;;;;484908;245;27959;-73
2022/02/16 05:29:10;;;;;;;1.48;1.48;;;5.80;99.90;;;;;;484941;245;27462;-75
2022/02/16 05:31:12;;;;;;;1.73;1.62;;;5.70;99.90;;;;;;467714;254;27623;-75
2022/02/16 05:33:13;;;;;;;1.58;1.48;;;5.80;99.90;;;;;;484869;245;27549;-73
2022/02/16 05:35:14;;;;;;;1.80;1.70;;;5.80;99.90;;;;;;484930;245;27526;-74
2022/02/16 05:37:16;;;;;;;1.90;1.50;;;5.80;99.90;;;;;;467656;254;27634;-73
2022/02/16 05:39:17;;;;;;;1.62;1.50;;;5.70;99.90;;;;;;484904;245;28028;-74
2022/02/16 05:41:18;;;;;;;1.40;1.30;;;5.80;99.90;;;;;;484898;245;27932;-73
2022/02/16 05:43:19;;;;;;;1.90;1.80;;;5.80;99.90;;;;;;467694;254;27594;-74
2022/02/16 05:45:21;;;;;;;3.00;1.75;;;5.80;99.90;;;;;;485139;245;27544;-75
2022/02/16 05:47:22;;;;;;;1.58;1.48;;;5.80;99.90;;;;;;484853;245;27394;-73
2022/02/16 05:49:23;;;;;;;1.73;1.58;;;5.90;99.90;;;;;;484883;245;27438;-74
2022/02/16 05:51:24;;;;;;;1.35;1.35;;;5.90;99.90;;;;;;484932;245;27487;-75
2022/02/16 05:53:26;;;;;;;2.08;1.58;;;5.80;99.90;;;;;;467720;254;27598;-74
2022/02/16 05:55:27;;;;;;;1.98;1.50;;;5.80;99.90;;;;;;484941;245;28016;-74
2022/02/16 05:57:30;;;;;;;1.60;1.50;;;5.80;99.90;;;;;;484928;245;27461;-75
2022/02/16 05:59:29;;;;;;;1.85;1.75;;;5.80;99.90;;;;;;467740;254;27588;-76
2022/02/16 06:01:31;;;;;;;1.80;1.50;;;5.80;99.90;;;;;;484901;245;27467;-75
2022/02/16 06:03:32;;;;;;;2.00;1.90;;;5.80;99.90;;;;;;484864;245;27414;-75
2022/02/16 06:05:33;;;;;;;2.03;1.92;;;5.80;99.90;;;;;;467394;254;27676;-75
2022/02/16 06:07:34;;;;;;;2.25;1.80;;;5.80;99.90;;;;;;467648;254;27428;-75
2022/02/16 06:09:37;;;;;;;2.17;2.08;;;;;;;;;;475653;249;28051;-73
2022/02/16 06:11:38;;;;;;;2.15;2.05;;;5.80;99.90;;;;;;475384;249;26894;-73
2022/02/16 06:13:39;;;;;;;2.53;2.30;;;5.80;99.90;;;;;;475378;249;27467;-73
2022/02/16 06:15:40;;;;;;;2.35;2.10;;;5.80;99.90;;;;;;475425;249;27553;-74
2022/02/16 06:17:41;;;;;;;3.15;2.92;;;5.80;99.90;;;;;;475435;249;27467;-76
2022/02/16 06:19:43;;;;;;;2.50;2.40;;;5.80;99.90;;;;;;475372;250;27519;-75
2022/02/16 06:21:44;;;;;;;1.80;1.70;;;5.90;99.90;;;;;;475362;250;27573;-74
2022/02/16 06:23:45;;;;;;;2.30;2.10;;;5.80;99.90;;;;;;475365;249;28589;-75
2022/02/16 06:25:47;;;;;;;2.30;2.20;;;5.90;99.90;;;;;;475420;250;27888;-76
2022/02/16 06:27:48;;;;;;;2.53;2.40;;;5.90;99.90;;;;;;475398;249;27462;-75
2022/02/16 06:29:49;;;;;;;2.47;2.22;;;5.90;99.90;;;;;;477041;247;27452;-73
2022/02/16 06:31:50;;;;;;;2.00;1.90;;;5.90;99.90;;;;;;466435;253;27585;-73
2022/02/16 06:33:52;;;;;;;2.10;2.00;;;5.90;99.90;;;;;;481929;246;27677;-75
2022/02/16 06:35:53;;;;;;;2.00;1.90;;;5.90;99.90;;;;;;481972;247;27625;-75
2022/02/16 06:37:54;;;;;;;1.92;1.83;;;5.90;99.90;;;;;;481992;247;28014;-73
2022/02/16 06:39:55;;;;;;;2.00;1.90;;;5.90;99.90;;;;;;482030;247;28803;-73
2022/02/16 06:41:57;;;;;;;2.03;1.92;;;5.90;99.90;;;;;;481905;247;27612;-74
2022/02/16 06:43:58;;;;;;;2.30;2.20;;;5.90;99.90;;;;;;478849;247;27503;-73
2022/02/16 06:45:59;;;;;;;2.60;1.83;;;5.80;99.90;;;;;;478711;248;27549;-75
2022/02/16 06:48:00;;;;;;;1.85;1.85;;;5.90;99.90;;;;;;478834;248;27439;-76
2022/02/16 06:50:02;;;;;;;1.90;1.80;;;5.90;99.90;;;;;;478824;248;27463;-75
2022/02/16 06:52:03;;;;;;;2.00;1.90;;;5.90;99.90;;;;;;478681;248;27527;-75
2022/02/16 06:54:04;;;;;;;2.30;2.08;;;5.90;99.90;;;;;;478804;248;27515;-76
2022/02/16 06:56:06;;;;;;;1.85;1.50;;;5.90;99.90;;;;;;478784;248;27416;-72
2022/02/16 06:58:07;;;;;;;1.95;1.83;;;5.90;99.90;;;;;;478701;248;27439;-76
2022/02/16 07:00:08;;;;;;;2.00;1.90;;;5.90;99.90;;;;;;478812;248;28005;-75
2022/02/16 07:02:09;;;;;;;1.58;1.58;;;5.90;99.90;;;;;;478690;248;27916;-75
2022/02/16 07:04:11;;;;;;;1.70;1.60;;;5.90;99.90;;;;;;478771;248;27455;-75
2022/02/16 07:06:12;;;;;;;1.87;1.77;;;5.90;99.90;;;;;;478770;248;27392;-75
2022/02/16 07:08:13;;;;;;;3.33;1.73;;;5.90;99.90;;;;;;478756;248;27464;-75
2022/02/16 07:10:14;;;;;;;2.10;2.00;;;5.90;99.90;;;;;;478781;248;27479;-75
2022/02/16 07:12:16;;;;;;;1.75;1.65;;;5.90;99.90;;;;;;478774;248;27416;-76
2022/02/16 07:14:17;;;;;;;1.62;1.52;;;6.00;99.90;;;;;;478729;248;28026;-76
2022/02/16 07:16:18;;;;;;;1.87;1.83;;;6.00;99.90;;;;;;479634;247;28712;-75
2022/02/16 07:18:19;;;;;;;1.92;1.90;;;6.00;99.90;;;;;;470848;251;27669;-75
2022/02/16 07:20:21;;;;;;;1.70;1.70;;;6.00;99.90;;;;;;470999;252;27538;-75
2022/02/16 07:22:22;;;;;;;1.95;1.90;;;6.00;99.90;;;;;;470962;252;27431;-75
2022/02/16 07:24:23;;;;;;;1.75;1.75;;;6.00;99.90;;;;;;463769;252;27457;-76
2022/02/16 07:26:24;;;;;;;2.30;2.10;;;6.00;99.90;;;;;;466316;255;27633;-75
2022/02/16 07:28:26;;;;;;;2.00;1.90;;;6.00;99.90;;;;;;466385;255;27593;-75
2022/02/16 07:30:27;;;;;;;2.12;2.00;;;6.00;99.90;;;;;;466372;255;29511;-76
2022/02/16 07:32:28;;;;;;;1.80;1.70;;;6.00;99.90;;;;;;472278;245;28057;-75
2022/02/16 07:34:31;;;;;;;1.85;1.75;;;6.00;99.90;;;;;;484820;245;27518;-77
2022/02/16 07:36:31;;;;;;;1.85;1.75;;;6.00;99.90;;;;;;467587;254;27545;-75
2022/02/16 07:38:32;;;;;;;2.72;1.85;;;6.00;99.90;;;;;;484800;245;27449;-75
2022/02/16 07:40:33;;;;;;;3.37;1.83;;;6.00;99.90;;;;;;484903;245;27553;-77
2022/02/16 07:42:35;;;;;;;2.05;1.92;;;6.00;99.90;;;;;;467615;254;28071;-75
2022/02/16 07:44:36;;;;;;;2.92;1.73;;;6.00;99.90;;;;;;484862;245;27924;-75
2022/02/16 07:46:37;;;;;;;1.40;1.30;;;6.00;99.90;;;;;;484810;245;27399;-75
2022/02/16 07:48:38;;;;;;;1.30;1.30;;;6.00;99.90;;;;;;484776;245;27486;-76
2022/02/16 07:50:40;;;;;;;1.45;1.35;;;6.10;99.90;;;;;;467701;254;27588;-77
2022/02/16 07:52:41;;;;;;;1.55;1.27;;;6.10;99.90;;;;;;484847;245;27479;-76
2022/02/16 07:54:42;;;;;;;1.30;1.30;;;6.10;99.90;;;;;;484826;245;27451;-75
2022/02/16 07:56:44;;;;;;;1.50;1.40;;;6.10;99.90;;;;;;467742;254;28917;-75
2022/02/16 07:58:45;;;;;;;1.60;1.50;;;6.10;99.90;;;;;;484829;245;27947;-75
2022/02/16 08:00:46;;;;;;;1.50;1.20;;;6.10;99.90;;;;;;484806;245;27435;-75
2022/02/16 08:02:47;;;;;;;1.40;1.30;;;6.10;99.90;;;;;;467628;254;27533;-75
2022/02/16 08:04:48;;;;;;;1.25;1.25;;;6.10;99.90;;;;;;484860;245;27521;-75
2022/02/16 08:06:50;;;;;;;1.42;1.42;;;6.10;99.90;;;;;;484824;245;27437;-75
2022/02/16 08:08:52;;;;;;;1.10;1.10;;;6.10;99.90;;;;;;467756;254;27581;-76
2022/02/16 08:10:52;;;;;;;1.35;1.35;;;6.10;99.90;;;;;;484752;245;27912;-75
2022/02/16 08:12:56;;;;;;;2.75;1.40;;;6.10;99.90;;;;;;484816;245;27845;-75
2022/02/16 08:14:55;;;;;;;1.60;1.50;;;6.20;99.90;;;;;;484504;245;27445;-75
2022/02/16 08:16:56;;;;;;;1.58;1.48;;;6.10;99.90;;;;;;484834;245;27511;-75
2022/02/16 08:18:57;;;;;;;1.23;1.23;;;6.20;99.90;;;;;;467640;254;27554;-75
2022/02/16 08:20:58;;;;;;;1.40;1.35;;;6.10;99.90;;;;;;484875;245;27446;-75
2022/02/16 08:23:00;;;;;;;1.17;1.17;;;6.10;99.90;;;;;;484698;245;27982;-75
2022/02/16 08:25:01;;;;;;;1.60;1.10;;;6.10;99.90;;;;;;467657;254;28051;-75
2022/02/16 08:27:02;;;;;;;1.70;1.30;;;6.20;99.90;;;;;;484878;245;27503;-76
2022/02/16 08:29:04;;;;;;;1.17;1.17;;;6.20;99.90;;;;;;484790;245;27450;-75
2022/02/16 08:31:05;;;;;;;1.60;1.50;;;6.20;99.90;;;;;;467710;254;27562;-76
2022/02/16 08:33:06;;;;;;;1.35;1.35;;;6.20;99.90;;;;;;484839;245;27395;-75
2022/02/16 08:35:07;;;;;;;1.37;1.35;;;6.20;99.90;;;;;;484724;245;27539;-75
2022/02/16 08:37:09;;;;;;;1.20;1.20;;;6.30;99.90;;;;;;467711;254;28078;-77
2022/02/16 08:39:10;;;;;;;2.97;1.40;;;6.30;99.90;;;;;;484849;245;27968;-75
2022/02/16 08:41:13;;;;;;;1.40;1.30;;;6.40;99.90;;;;;;484756;245;28795;-76
2022/02/16 08:43:12;;;;;;;1.40;1.40;;;6.40;99.90;;;;;;467550;254;27527;-75
2022/02/16 08:45:14;;;;;;;1.60;1.50;;;6.40;99.90;;;;;;484856;245;27525;-75
2022/02/16 08:47:16;;;;;;;1.37;1.33;;;6.50;99.90;;;;;;484718;245;27931;-76
2022/02/16 08:49:16;;;;;;;1.73;1.63;;;6.50;99.90;;;;;;467634;254;27644;-75
2022/02/16 08:51:17;;;;;;;1.73;1.63;;;6.40;99.90;;;;;;484843;245;27751;-75
2022/02/16 08:53:19;;;;;;;1.80;1.70;;;6.50;99.90;;;;;;484782;245;27993;-75
2022/02/16 08:55:20;;;;;;;1.90;1.80;;;6.50;99.90;;;;;;467719;254;29493;-75
2022/02/16 08:57:22;;;;;;;1.50;1.50;;;6.50;99.90;;;;;;484852;245;29258;-75
2022/02/16 08:59:22;;;;;;;1.27;1.27;;;6.50;99.90;;;;;;484779;245;27963;-75
2022/02/16 09:01:24;;;;;;;1.33;1.33;;;6.50;99.90;;;;;;467698;254;28060;-73
2022/02/16 09:03:25;;;;;;;1.37;1.37;;;6.50;99.90;;;;;;484770;245;28837;-72
2022/02/16 09:05:26;;;;;;;1.97;1.50;;;6.50;99.90;;;;;;484886;245;27494;-73
2022/02/16 09:07:30;;;;;;;1.50;1.50;;;6.50;99.90;;;;;;467711;254;28278;-76
2022/02/16 09:09:33;;;;;;;1.37;1.37;;;6.60;99.90;;;;;;484809;245;27797;-77
2022/02/16 09:11:33;;;;;;;1.37;1.37;;;6.60;99.90;;;;;;484777;245;28327;-75
2022/02/16 09:13:34;;;;;;;1.30;1.30;;;6.60;99.90;;;;;;467897;252;27977;-75
2022/02/16 09:15:35;;;;;;;1.70;1.60;;;6.60;99.90;;;;;;471112;252;28369;-75
2022/02/16 09:17:36;;;;;;;1.62;1.50;;;6.60;99.90;;;;;;474633;250;29304;-75
2022/02/16 09:19:38;;;;;;;1.13;1.10;;;6.70;99.90;;;;;;474691;250;27485;-76
2022/02/16 09:21:39;;;;;;;1.30;1.30;;;6.70;99.90;;;;;;474656;250;28101;-75
2022/02/16 09:23:40;;;;;;;1.17;1.17;;;6.70;99.90;;;;;;476653;246;28782;-75
2022/02/16 09:25:41;;;;;;;1.60;1.60;;;6.70;99.90;;;;;;482904;246;28838;-75
2022/02/16 09:27:43;;;;;;;1.50;1.40;;;6.70;99.90;;;;;;482861;246;27992;-75
2022/02/16 09:29:44;;;;;;;1.60;1.50;;;6.70;99.90;;;;;;482905;246;27777;-77
2022/02/16 09:31:45;;;;;;;1.57;1.47;;;6.70;99.90;;;;;;482881;246;28536;-75
2022/02/16 09:33:46;;;;;;;1.53;1.43;;;6.80;99.90;;;;;;482809;246;28568;-75
2022/02/16 09:35:48;;;;;;;1.50;1.40;;;6.80;99.90;;;;;;482836;246;27857;-75
2022/02/16 09:37:49;;;;;;;1.30;1.30;;;6.80;99.90;;;;;;482899;246;28070;-76
2022/02/16 09:39:51;;;;;;;1.40;1.30;;;6.80;99.90;;;;;;482859;246;28011;-75
2022/02/16 09:41:51;;;;;;;1.47;1.37;;;6.90;99.90;;;;;;482850;246;27824;-75
2022/02/16 09:43:53;;;;;;;1.60;1.50;;;6.90;99.90;;;;;;482775;246;28598;-76
2022/02/16 09:45:55;;;;;;;1.37;1.37;;;6.90;99.90;;;;;;482854;246;28321;-76
2022/02/16 09:47:55;;;;;;;1.50;1.40;;;6.90;99.90;;;;;;477532;246;28428;-75
2022/02/16 09:49:56;;;;;;;1.30;1.30;;;7.00;99.90;;;;;;471182;251;29471;-76
2022/02/16 09:51:58;;;;;;;1.30;1.30;;;7.00;99.90;;;;;;471205;252;28333;-75
2022/02/16 09:53:59;;;;;;;1.40;1.37;;;7.00;99.90;;;;;;471176;252;28480;-76
2022/02/16 09:56:00;;;;;;;1.80;1.30;;;7.00;99.90;;;;;;466968;252;28515;-75
2022/02/16 09:58:01;;;;;;;1.43;1.33;;;7.10;99.90;;;;;;466366;254;28081;-75
2022/02/16 10:00:03;;;;;;;1.50;1.43;;;7.10;99.90;;;;;;466295;255;27792;-76
2022/02/16 10:02:04;;;;;;;1.30;1.30;;;7.20;99.90;;;;;;466274;255;27819;-75
2022/02/16 10:04:05;;;;;;;1.20;1.20;;;7.10;99.90;;;;;;466244;255;27727;-75
2022/02/16 10:06:06;;;;;;;1.50;1.40;;;7.10;99.90;;;;;;466341;255;28074;-75
2022/02/16 10:08:08;;;;;;;1.20;1.20;;;7.20;99.90;;;;;;466313;255;28132;-76
2022/02/16 10:10:09;;;;;;;1.47;1.30;;;7.30;99.90;;;;;;466345;255;28153;-77
2022/02/16 10:12:10;;;;;;;1.50;1.40;;;7.40;99.90;;;;;;466309;255;27966;-75
2022/02/16 10:14:11;;;;;;;1.40;1.30;;;7.30;99.90;;;;;;466233;255;28361;-76
2022/02/16 10:16:13;;;;;;;1.07;1.07;;;7.50;99.90;;;;;;466247;255;28223;-76
2022/02/16 10:18:15;;;;;;;1.20;1.20;;;7.50;99.90;;;;;;466255;255;28141;-76
2022/02/16 10:20:17;;;;;;;1.10;1.10;;;7.50;99.90;;;;;;466288;254;27887;-77
2022/02/16 10:22:16;;;;;;;1.63;1.10;;;7.40;99.90;;;;;;466271;255;28072;-76
2022/02/16 10:24:18;;;;;;;1.20;1.20;;;7.40;99.90;;;;;;466166;255;27730;-75
2022/02/16 10:26:19;;;;;;;1.73;1.30;;;7.30;99.90;;;;;;466342;255;27993;-77
2022/02/16 10:28:20;;;;;;;1.63;1.10;;;7.20;99.90;;;;;;466329;255;27932;-74
2022/02/16 10:30:21;;;;;;;1.27;1.20;;;7.20;99.90;;;;;;466243;255;27841;-75
2022/02/16 10:32:23;;;;;;;1.67;1.30;;;7.20;99.90;;;;;;466279;255;28335;-76
2022/02/16 10:34:24;;;;;;;1.27;1.27;;;7.30;99.90;;;;;;466306;255;28636;-75
2022/02/16 10:36:27;;;;;;;1.20;1.20;;;7.20;99.90;;;;;;466255;255;28616;-76
2022/02/16 10:38:26;;;;;;;1.20;1.20;;;7.20;99.90;;;;;;466717;245;28320;-77
2022/02/16 10:40:28;;;;;;;1.30;1.30;;;7.30;99.90;;;;;;475887;250;28611;-75